Terminal Aerodrome Forecast
Issued by NWS

Home | Current Version | Previous Version | Text Only | Print | Product List | Glossary On
Versions: 1 2 3 4 5 6 7 8 9 10 11 12 13 14 15 16 17 18 19 20 21
000
FTUS43 KDLH 281602 AAC
TAFHIB
TAF AMD
KHIB 281602Z 2816/2912 00000KT P6SM OVC003
      TEMPO 2816/2817 SCT003
     FM281700 VRB05KT P6SM SCT005
     FM281800 15004KT P6SM SCT010 BKN250
     FM290100 15005KT P6SM -SHRA VCTS BKN050CB
     FM290500 15003KT 5SM TSRA BKN040CB
     FM291000 VRB02KT 3SM -SHRA BR VCTS BKN050CB=

USA.gov is the U.S. government's official web portal to all federal, state and local government web resources and services.